createdAt,value
2023-05-09T00:00:43.489Z,7.78
2023-05-09T00:05:47.472Z,8.23
2023-05-09T00:10:50.929Z,8.80
2023-05-09T00:15:57.474Z,7.88
2023-05-09T00:21:02.597Z,8.88
2023-05-09T00:26:06.489Z,8.55
2023-05-09T00:31:11.319Z,8.35
2023-05-09T00:36:14.857Z,8.98
2023-05-09T00:41:18.349Z,8.07
2023-05-09T00:46:24.087Z,9.50
2023-05-09T00:51:28.962Z,8.13
2023-05-09T01:01:38.058Z,9.82
2023-05-09T01:06:50.230Z,9.25
2023-05-09T01:12:07.607Z,9.90
2023-05-09T01:17:18.333Z,9.45
2023-05-09T01:22:25.549Z,10.15
2023-05-09T01:27:44.639Z,9.95
2023-05-09T01:32:52.812Z,10.40
2023-05-09T01:37:56.792Z,9.98
2023-05-09T01:43:05.254Z,9.30
2023-05-09T01:48:12.325Z,11.27
2023-05-09T01:53:16.951Z,9.98
2023-05-09T01:58:21.654Z,10.90
2023-05-09T02:03:27.044Z,11.48
2023-05-09T02:08:31.276Z,11.02
2023-05-09T02:13:34.898Z,11.00
2023-05-09T02:18:39.838Z,11.85
2023-05-09T02:23:43.457Z,11.13
2023-05-09T02:28:48.281Z,11.10
2023-05-09T02:33:54.782Z,11.35
2023-05-09T02:38:58.430Z,12.18
2023-05-09T02:44:01.918Z,12.15
2023-05-09T02:49:06.818Z,12.50
2023-05-09T02:54:10.271Z,11.30
2023-05-09T02:59:13.720Z,11.40
2023-05-09T03:04:19.897Z,11.30
2023-05-09T03:09:23.324Z,10.88
2023-05-09T03:14:26.806Z,11.02
2023-05-09T03:19:31.705Z,10.90
2023-05-09T03:24:35.246Z,10.27
2023-05-09T03:29:38.693Z,9.07
2023-05-09T03:34:43.556Z,9.10
2023-05-09T03:39:47.054Z,8.60
2023-05-09T03:44:50.573Z,7.68
2023-05-09T03:49:55.544Z,6.78
2023-05-09T04:00:02.241Z,6.55
2023-05-09T04:05:10.408Z,6.28
2023-05-09T04:10:13.987Z,5.75
2023-05-09T04:15:17.634Z,5.72
2023-05-09T04:20:22.812Z,5.50
2023-05-09T04:25:26.386Z,5.63
2023-05-09T04:30:29.959Z,5.80
2023-05-09T04:35:35.041Z,5.47
2023-05-09T04:40:38.461Z,4.85
2023-05-09T04:45:41.944Z,5.30
2023-05-09T04:50:48.615Z,4.57
2023-05-09T04:55:55.118Z,3.97
2023-05-09T05:00:58.619Z,3.85
2023-05-09T05:11:06.734Z,3.30
2023-05-09T05:16:10.203Z,3.40
2023-05-09T05:21:16.448Z,3.15
2023-05-09T05:26:19.949Z,2.72
2023-05-09T05:31:23.589Z,2.63
2023-05-09T05:36:28.585Z,2.50
2023-05-09T05:41:32.135Z,2.45
2023-05-09T05:46:35.642Z,2.65
2023-05-09T05:51:40.932Z,2.13
2023-05-09T05:56:44.466Z,2.10
2023-05-09T06:01:48.024Z,1.90
2023-05-09T06:06:52.988Z,2.00
2023-05-09T06:11:56.444Z,2.20
2023-05-09T06:17:00.269Z,1.95
2023-05-09T06:22:05.239Z,1.63
2023-05-09T06:27:08.816Z,1.52
2023-05-09T06:32:12.311Z,1.30
2023-05-09T06:37:17.377Z,1.52
2023-05-09T06:42:20.899Z,1.58
2023-05-09T06:52:29.017Z,1.80
2023-05-09T06:57:32.636Z,1.52
2023-05-09T07:02:36.136Z,1.83
2023-05-09T07:07:41.169Z,1.50
2023-05-09T07:12:44.684Z,1.80
2023-05-09T07:17:48.173Z,1.50
2023-05-09T07:22:53.203Z,1.60
2023-05-09T07:27:56.806Z,1.70
2023-05-09T07:33:01.610Z,1.47
2023-05-09T07:38:06.683Z,1.50
2023-05-09T07:43:10.148Z,1.42
2023-05-09T07:48:13.699Z,1.40
2023-05-09T07:53:18.738Z,1.40
2023-05-09T07:58:22.226Z,1.58
2023-05-09T08:03:26.097Z,1.40
2023-05-09T08:08:31.236Z,1.70
2023-05-09T08:13:34.777Z,1.80
2023-05-09T08:18:38.311Z,2.08
2023-05-09T08:23:43.510Z,1.55
2023-05-09T08:28:47.027Z,1.50
2023-05-09T08:33:50.568Z,1.60
2023-05-09T08:38:55.668Z,1.50
2023-05-09T08:43:59.447Z,1.42
2023-05-09T08:49:03.343Z,1.60
2023-05-09T08:54:08.601Z,1.50
2023-05-09T08:59:12.241Z,1.50
2023-05-09T09:04:15.987Z,1.70
2023-05-09T09:09:21.712Z,1.42
2023-05-09T09:14:26.958Z,1.67
2023-05-09T09:19:32.699Z,1.35
2023-05-09T09:24:37.857Z,1.52
2023-05-09T09:29:42.161Z,1.50
2023-05-09T09:34:45.838Z,1.40
2023-05-09T09:39:57.094Z,1.50
2023-05-09T09:45:04.403Z,1.70
2023-05-09T09:50:13.469Z,1.65
2023-05-09T09:55:18.808Z,1.40
2023-05-09T10:00:28.597Z,1.60
2023-05-09T10:05:34.581Z,1.77
2023-05-09T10:10:39.597Z,1.67
2023-05-09T10:15:53.049Z,1.40
2023-05-09T10:21:01.103Z,1.50
2023-05-09T10:26:17.467Z,1.83
2023-05-09T10:31:24.467Z,1.35
2023-05-09T10:36:28.810Z,1.33
2023-05-09T10:41:34.356Z,1.80
2023-05-09T10:46:38.856Z,1.63
2023-05-09T10:56:47.058Z,1.50
2023-05-09T11:02:01.144Z,2.15
2023-05-09T11:07:04.833Z,1.63
2023-05-09T11:12:15.192Z,1.77
2023-05-09T11:17:31.848Z,2.42
2023-05-09T11:22:41.532Z,1.63
2023-05-09T11:27:48.711Z,3.17
2023-05-09T11:32:53.904Z,2.78
2023-05-09T11:38:02.283Z,2.03
2023-05-09T11:43:09.478Z,1.55
2023-05-09T11:48:12.946Z,15.52
2023-05-09T11:53:16.416Z,7.90
2023-05-09T11:58:21.684Z,2.35
2023-05-09T12:03:25.343Z,1.50
2023-05-09T12:08:30.396Z,2.07
2023-05-09T12:13:36.276Z,3.95
2023-05-09T12:18:39.761Z,4.22
2023-05-09T12:23:43.646Z,2.20
2023-05-09T12:28:49.926Z,2.10
2023-05-09T12:33:53.554Z,5.25
2023-05-09T12:38:57.532Z,2.67
2023-05-09T12:44:02.554Z,4.47
2023-05-09T12:49:06.179Z,2.47
2023-05-09T12:54:11.149Z,1.75
2023-05-09T12:59:22.502Z,7.35
2023-05-09T13:04:27.787Z,2.35
2023-05-09T13:09:31.667Z,2.40
2023-05-09T13:14:36.655Z,1.93
2023-05-09T13:19:40.192Z,1.60
2023-05-09T13:24:43.818Z,1.60
2023-05-09T13:29:48.705Z,1.65
2023-05-09T13:34:52.529Z,2.15
2023-05-09T13:39:56.416Z,3.03
2023-05-09T13:45:01.491Z,22.30
2023-05-09T13:50:09.585Z,1.70
2023-05-09T13:55:13.111Z,1.92
2023-05-09T14:00:18.505Z,1.83
2023-05-09T14:05:22.825Z,1.70
2023-05-09T14:10:27.321Z,2.05
2023-05-09T14:20:37.431Z,3.38
2023-05-09T14:25:41.131Z,1.70
2023-05-09T14:30:46.168Z,1.85
2023-05-09T14:35:49.929Z,1.75
2023-05-09T14:40:53.485Z,2.07
2023-05-09T14:45:58.608Z,1.75
2023-05-09T14:51:02.193Z,1.70
2023-05-09T14:56:06.953Z,2.70
2023-05-09T15:01:11.918Z,1.85
2023-05-09T15:06:15.607Z,1.95
2023-05-09T15:11:19.122Z,1.70
2023-05-09T15:16:24.204Z,2.10
2023-05-09T15:21:29.113Z,2.15
2023-05-09T15:26:32.781Z,2.05
2023-05-09T15:31:38.120Z,2.15
2023-05-09T15:36:41.662Z,2.53
2023-05-09T15:41:45.349Z,2.03
2023-05-09T15:46:50.442Z,1.87
2023-05-09T15:51:53.950Z,2.35
2023-05-09T15:56:57.593Z,2.20
2023-05-09T16:02:02.557Z,2.15
2023-05-09T16:07:06.254Z,1.95
2023-05-09T16:12:09.777Z,1.85
2023-05-09T16:17:14.824Z,2.00
2023-05-09T16:22:18.372Z,2.05
2023-05-09T16:27:22.005Z,2.58
2023-05-09T16:32:26.994Z,2.30
2023-05-09T16:37:30.509Z,2.30
2023-05-09T16:42:34.226Z,1.90
2023-05-09T16:47:39.303Z,1.60
2023-05-09T16:52:42.854Z,1.90
2023-05-09T16:57:46.359Z,1.90
2023-05-09T17:02:51.483Z,1.90
2023-05-09T17:07:55.082Z,2.42
2023-05-09T17:12:58.722Z,2.08
2023-05-09T17:18:03.911Z,2.40
2023-05-09T17:23:07.527Z,2.05
2023-05-09T17:28:11.195Z,2.35
2023-05-09T17:33:18.852Z,2.05
2023-05-09T17:38:22.384Z,2.17
2023-05-09T17:43:27.946Z,2.17
2023-05-09T17:48:33.007Z,2.22
2023-05-09T17:53:36.715Z,2.40
2023-05-09T17:58:40.329Z,2.10
2023-05-09T18:03:45.455Z,2.10
2023-05-09T18:08:49.289Z,2.30
2023-05-09T18:13:52.985Z,2.17
2023-05-09T18:18:59.524Z,2.63
2023-05-09T18:24:03.197Z,2.28
2023-05-09T18:29:06.889Z,2.53
2023-05-09T18:34:12.422Z,2.35
2023-05-09T18:39:16.200Z,2.72
2023-05-09T18:44:19.837Z,2.65
2023-05-09T18:49:26.396Z,2.88
2023-05-09T18:54:30.154Z,2.55
2023-05-09T18:59:33.767Z,3.20
2023-05-09T19:04:38.880Z,2.53
2023-05-09T19:09:42.538Z,2.38
2023-05-09T19:14:46.198Z,2.92
2023-05-09T19:19:51.218Z,3.20
2023-05-09T19:24:54.859Z,6.30
2023-05-09T19:29:59.531Z,6.18
2023-05-09T19:35:04.635Z,6.63
2023-05-09T19:40:09.315Z,7.45
2023-05-09T19:45:13.856Z,5.47
2023-05-09T19:50:19.872Z,6.60
2023-05-09T19:55:23.670Z,7.53
2023-05-09T20:00:27.801Z,6.60
2023-05-09T20:05:32.885Z,7.50
2023-05-09T20:10:36.772Z,7.82
2023-05-09T20:15:40.451Z,6.03
2023-05-09T20:20:45.818Z,6.30
2023-05-09T20:25:49.331Z,7.10
2023-05-09T20:30:52.920Z,8.00
2023-05-09T20:35:57.874Z,10.20
2023-05-09T20:41:01.790Z,8.35
2023-05-09T20:46:05.476Z,8.73
2023-05-09T20:51:10.766Z,8.70
2023-05-09T20:56:14.406Z,8.82
2023-05-09T21:01:17.949Z,7.97
2023-05-09T21:06:22.928Z,7.45
2023-05-09T21:16:29.763Z,7.53
2023-05-09T21:21:34.781Z,7.57
2023-05-09T21:31:41.508Z,6.65
2023-05-09T21:36:46.370Z,7.28
2023-05-09T21:46:53.170Z,6.68
2023-05-09T21:51:58.215Z,6.80
2023-05-09T21:57:01.822Z,6.78
2023-05-09T22:02:05.538Z,6.45
2023-05-09T22:07:10.518Z,7.90
2023-05-09T22:17:17.279Z,7.65
2023-05-09T22:22:22.696Z,7.53
2023-05-09T22:27:26.218Z,7.38
2023-05-09T22:32:29.753Z,8.40
2023-05-09T22:37:34.634Z,8.82
2023-05-09T22:47:41.419Z,6.72
2023-05-09T22:52:46.324Z,6.22
2023-05-09T23:02:53.108Z,5.70
2023-05-09T23:07:59.230Z,6.07
2023-05-09T23:18:06.001Z,6.72
2023-05-09T23:23:10.887Z,7.97
2023-05-09T23:33:17.672Z,6.70
2023-05-09T23:38:22.726Z,7.18
2023-05-09T23:43:26.262Z,6.78
2023-05-09T23:48:29.706Z,7.45
2023-05-09T23:53:35.345Z,7.32
2023-05-09T23:58:38.967Z,7.55
